createdAt,value
2023-04-30T00:00:02.635Z,11.80
2023-04-30T00:03:00.014Z,15.60
2023-04-30T00:05:29.131Z,15.00
2023-04-30T00:07:57.730Z,16.00
2023-04-30T00:10:27.885Z,14.00
2023-04-30T00:12:57.130Z,13.20
2023-04-30T00:15:26.083Z,14.40
2023-04-30T00:17:54.641Z,16.00
2023-04-30T00:20:23.784Z,15.00
2023-04-30T00:22:52.345Z,17.80
2023-04-30T00:25:24.574Z,16.00
2023-04-30T00:27:54.498Z,17.40
2023-04-30T00:30:23.373Z,14.60
2023-04-30T00:32:51.927Z,17.40
2023-04-30T00:35:20.847Z,17.00
2023-04-30T00:37:49.596Z,18.20
2023-04-30T00:40:18.621Z,13.80
2023-04-30T00:42:48.739Z,20.00
2023-04-30T00:45:22.157Z,17.80
2023-04-30T00:47:51.281Z,4.00
2023-04-30T00:50:20.214Z,18.80
2023-04-30T00:52:48.935Z,22.60
2023-04-30T00:55:18.693Z,21.40
2023-04-30T00:57:47.795Z,23.60
2023-04-30T01:00:19.214Z,12.00
2023-04-30T01:02:47.924Z,24.80
2023-04-30T01:05:16.858Z,27.50
2023-04-30T01:07:46.544Z,22.00
2023-04-30T01:10:16.483Z,28.60
2023-04-30T01:12:51.669Z,21.00
2023-04-30T01:15:28.830Z,29.00
2023-04-30T01:18:01.271Z,29.80
2023-04-30T01:20:31.685Z,27.75
2023-04-30T01:23:15.628Z,28.00
2023-04-30T01:26:01.651Z,22.00
2023-04-30T01:28:33.347Z,22.40
2023-04-30T01:31:02.410Z,23.20
2023-04-30T01:33:30.990Z,23.40
2023-04-30T01:36:38.240Z,19.40
2023-04-30T01:39:22.679Z,20.60
2023-04-30T01:41:59.313Z,25.60
2023-04-30T01:44:55.141Z,21.20
2023-04-30T01:47:35.136Z,22.75
2023-04-30T01:50:14.972Z,29.50
2023-04-30T01:52:48.900Z,26.25
2023-04-30T01:55:23.505Z,26.25
2023-04-30T01:57:58.695Z,26.25
2023-04-30T02:00:30.693Z,24.00
2023-04-30T02:03:00.529Z,22.00
2023-04-30T02:05:29.187Z,22.00
2023-04-30T02:07:58.145Z,20.40
2023-04-30T02:10:27.887Z,20.60
2023-04-30T02:12:56.945Z,18.50
2023-04-30T02:15:25.703Z,22.80
2023-04-30T02:17:56.118Z,19.60
2023-04-30T02:20:24.837Z,22.20
2023-04-30T02:22:54.333Z,20.00
2023-04-30T02:25:22.924Z,18.20
2023-04-30T02:27:51.832Z,3.00
2023-04-30T02:30:21.055Z,21.20
2023-04-30T02:32:50.104Z,20.00
2023-04-30T02:35:20.186Z,22.60
2023-04-30T02:37:49.025Z,23.00
2023-04-30T02:40:17.613Z,24.00
2023-04-30T02:42:46.584Z,20.40
2023-04-30T02:45:15.293Z,21.60
2023-04-30T02:47:44.391Z,20.80
2023-04-30T02:50:13.086Z,19.00
2023-04-30T02:52:43.656Z,18.00
2023-04-30T02:55:12.285Z,18.80
2023-04-30T02:57:41.646Z,14.60
2023-04-30T03:00:11.458Z,17.00
2023-04-30T03:02:41.079Z,20.60
2023-04-30T03:05:10.480Z,16.80
2023-04-30T03:07:39.332Z,20.80
2023-04-30T03:10:11.006Z,19.40
2023-04-30T03:12:40.046Z,20.80
2023-04-30T03:15:10.102Z,19.60
2023-04-30T03:17:38.962Z,21.80
2023-04-30T03:20:09.073Z,18.20
2023-04-30T03:22:37.939Z,19.20
2023-04-30T03:25:07.450Z,22.80
2023-04-30T03:27:37.693Z,19.60
2023-04-30T03:30:07.671Z,23.00
2023-04-30T03:32:36.891Z,23.20
2023-04-30T03:35:06.136Z,18.40
2023-04-30T03:37:35.027Z,21.60
2023-04-30T03:40:05.031Z,23.00
2023-04-30T03:42:33.852Z,26.00
2023-04-30T03:45:04.333Z,26.75
2023-04-30T03:47:33.293Z,26.50
2023-04-30T03:50:01.856Z,34.25
2023-04-30T03:52:31.328Z,25.75
2023-04-30T03:54:59.909Z,27.75
2023-04-30T03:57:28.781Z,28.75
2023-04-30T03:59:57.649Z,31.00
2023-04-30T04:02:28.116Z,28.50
2023-04-30T04:04:56.768Z,32.00
2023-04-30T04:07:25.727Z,31.25
2023-04-30T04:09:54.610Z,28.75
2023-04-30T04:12:23.916Z,28.75
2023-04-30T04:14:52.557Z,30.00
2023-04-30T04:17:21.935Z,21.25
2023-04-30T04:19:52.032Z,35.00
2023-04-30T04:22:21.101Z,35.00
2023-04-30T04:24:49.740Z,31.75
2023-04-30T04:27:22.329Z,24.75
2023-04-30T04:29:51.268Z,25.75
2023-04-30T04:32:20.232Z,25.25
2023-04-30T04:34:54.266Z,55.75
2023-04-30T04:37:23.332Z,32.25
2023-04-30T04:39:52.808Z,31.00
2023-04-30T04:42:21.857Z,26.25
2023-04-30T04:44:50.344Z,30.25
2023-04-30T04:47:23.001Z,28.75
2023-04-30T04:49:53.201Z,31.75
2023-04-30T04:52:22.375Z,69.50
2023-04-30T04:54:53.988Z,46.25
2023-04-30T04:57:22.864Z,32.75
2023-04-30T04:59:51.623Z,32.00
2023-04-30T05:02:21.373Z,34.50
2023-04-30T05:04:50.810Z,114.75
2023-04-30T05:07:22.332Z,48.25
2023-04-30T05:09:50.876Z,37.00
2023-04-30T05:12:19.763Z,34.00
2023-04-30T05:14:49.525Z,33.25
2023-04-30T05:17:18.619Z,33.75
2023-04-30T05:19:48.990Z,36.75
2023-04-30T05:22:18.468Z,50.00
2023-04-30T05:24:48.647Z,38.00
2023-04-30T05:27:17.518Z,24.50
2023-04-30T05:29:46.232Z,34.75
2023-04-30T05:32:15.128Z,53.67
2023-04-30T05:34:43.846Z,50.75
2023-04-30T05:37:14.549Z,35.00
2023-04-30T05:39:43.200Z,39.00
2023-04-30T05:42:13.638Z,35.00
2023-04-30T05:44:42.294Z,38.50
2023-04-30T05:47:11.189Z,42.25
2023-04-30T05:49:39.876Z,32.75
2023-04-30T05:52:08.806Z,39.25
2023-04-30T05:54:37.324Z,37.50
2023-04-30T05:57:06.204Z,38.25
2023-04-30T05:59:37.273Z,37.75
2023-04-30T06:02:06.213Z,40.00
2023-04-30T06:04:35.162Z,36.75
2023-04-30T06:07:04.351Z,37.25
2023-04-30T06:09:32.980Z,46.25
2023-04-30T06:12:02.548Z,43.50
2023-04-30T06:14:31.567Z,39.25
2023-04-30T06:17:02.079Z,39.00
2023-04-30T06:19:30.788Z,39.25
2023-04-30T06:22:02.172Z,38.00
2023-04-30T06:24:30.936Z,39.00
2023-04-30T06:26:59.794Z,49.50
2023-04-30T06:29:28.394Z,40.50
2023-04-30T06:31:57.342Z,40.50
2023-04-30T06:34:27.328Z,39.00
2023-04-30T06:36:56.772Z,40.00
2023-04-30T06:39:25.373Z,40.00
2023-04-30T06:41:54.311Z,40.50
2023-04-30T06:46:10.267Z,130.50
2023-04-30T06:48:39.290Z,40.50
2023-04-30T10:05:19.352Z,24.50
2023-04-30T10:07:48.418Z,25.50
2023-04-30T10:10:17.865Z,23.40
2023-04-30T10:23:33.745Z,32.75
2023-04-30T10:26:03.848Z,32.00
2023-04-30T10:28:33.701Z,33.00
2023-04-30T10:31:03.033Z,29.25
2023-04-30T10:33:38.617Z,33.00
2023-04-30T10:36:12.412Z,28.00
2023-04-30T10:38:42.608Z,25.25
2023-04-30T10:41:11.670Z,27.25
2023-04-30T10:43:40.235Z,27.50
2023-04-30T10:46:10.174Z,22.60
2023-04-30T10:48:38.830Z,21.75
2023-04-30T10:51:10.411Z,24.80
2023-04-30T10:53:40.319Z,21.00
2023-04-30T10:56:11.095Z,19.00
2023-04-30T10:58:41.282Z,23.60
2023-04-30T11:01:13.729Z,12.60
2023-04-30T11:03:44.023Z,19.20
2023-04-30T11:06:14.822Z,23.60
2023-04-30T11:08:45.600Z,23.20
2023-04-30T11:11:21.764Z,30.75
2023-04-30T11:14:00.794Z,21.40
2023-04-30T11:16:30.871Z,22.00
2023-04-30T11:19:09.469Z,23.80
2023-04-30T11:21:41.922Z,24.75
2023-04-30T11:24:10.556Z,26.50
2023-04-30T11:27:06.639Z,22.60
2023-04-30T11:29:36.312Z,24.50
2023-04-30T11:32:06.085Z,31.00
2023-04-30T11:34:36.230Z,25.00
2023-04-30T11:37:05.399Z,29.50
2023-04-30T11:39:37.666Z,30.00
2023-04-30T11:42:09.068Z,30.25
2023-04-30T11:44:38.749Z,26.00
2023-04-30T11:47:07.740Z,26.00
2023-04-30T11:49:36.476Z,27.50
2023-04-30T11:52:05.527Z,25.80
2023-04-30T11:54:35.204Z,24.25
2023-04-30T11:57:05.144Z,24.20
2023-04-30T11:59:41.728Z,29.50
2023-04-30T12:02:13.460Z,32.50
2023-04-30T12:04:44.826Z,29.50
2023-04-30T12:07:13.680Z,32.25
2023-04-30T12:09:55.624Z,26.40
2023-04-30T12:12:28.986Z,20.40
2023-04-30T12:14:59.975Z,18.00
2023-04-30T12:17:33.851Z,11.80
2023-04-30T12:20:02.608Z,10.60
2023-04-30T12:22:31.744Z,15.40
2023-04-30T12:25:02.409Z,13.20
2023-04-30T12:27:31.986Z,21.80
2023-04-30T12:30:08.184Z,25.25
2023-04-30T12:32:41.910Z,28.00
2023-04-30T12:35:16.200Z,26.75
2023-04-30T12:37:46.120Z,24.25
2023-04-30T12:40:15.469Z,32.50
2023-04-30T12:42:44.835Z,32.50
2023-04-30T12:45:15.208Z,32.75
2023-04-30T12:47:44.287Z,32.25
2023-04-30T12:50:13.547Z,33.00
2023-04-30T12:52:44.042Z,37.50
2023-04-30T12:55:19.572Z,33.75
2023-04-30T12:58:08.720Z,34.75
2023-04-30T13:00:50.582Z,37.75
2023-04-30T13:03:21.997Z,30.50
2023-04-30T13:05:52.302Z,33.75
2023-04-30T13:08:22.001Z,33.25
2023-04-30T13:10:50.637Z,35.50
2023-04-30T13:13:20.383Z,34.25
2023-04-30T13:15:50.380Z,34.25
2023-04-30T13:18:19.346Z,28.25
2023-04-30T13:20:47.930Z,29.67
2023-04-30T13:23:16.815Z,31.50
2023-04-30T13:25:45.630Z,31.50
2023-04-30T13:28:15.027Z,23.60
2023-04-30T13:30:43.633Z,23.50
2023-04-30T13:33:14.100Z,25.75
2023-04-30T13:35:42.767Z,31.25
2023-04-30T13:38:11.998Z,29.25
2023-04-30T13:40:41.169Z,27.75
2023-04-30T13:43:10.086Z,24.00
2023-04-30T13:45:38.805Z,22.00
2023-04-30T13:48:08.729Z,22.20
2023-04-30T13:50:38.825Z,24.40
2023-04-30T13:53:07.674Z,26.20
2023-04-30T13:55:36.370Z,24.40
2023-04-30T13:58:05.420Z,25.00
2023-04-30T14:00:34.085Z,25.40
2023-04-30T14:03:04.505Z,22.60
2023-04-30T14:05:35.065Z,24.60
2023-04-30T14:08:06.274Z,23.00
2023-04-30T14:10:34.986Z,24.20
2023-04-30T14:13:04.072Z,26.00
2023-04-30T14:15:33.011Z,25.50
2023-04-30T14:18:02.001Z,24.40
2023-04-30T14:20:30.985Z,24.60
2023-04-30T14:23:02.080Z,38.50
2023-04-30T14:25:33.089Z,36.00
2023-04-30T14:28:02.025Z,24.75
2023-04-30T14:30:30.894Z,26.75
2023-04-30T14:32:59.810Z,29.50
2023-04-30T14:35:28.577Z,19.80
2023-04-30T14:37:57.658Z,22.20
2023-04-30T14:40:26.365Z,25.40
2023-04-30T14:42:56.710Z,22.00
2023-04-30T14:45:28.211Z,23.60
2023-04-30T14:47:57.218Z,25.00
2023-04-30T14:50:26.071Z,20.00
2023-04-30T14:52:54.994Z,23.60
2023-04-30T14:55:23.848Z,23.40
2023-04-30T14:57:52.658Z,25.00
2023-04-30T15:00:22.954Z,22.40
2023-04-30T15:02:52.233Z,23.25
2023-04-30T15:05:21.225Z,25.00
2023-04-30T15:07:50.118Z,20.40
2023-04-30T15:10:19.474Z,20.80
2023-04-30T15:12:48.579Z,21.40
2023-04-30T15:15:18.895Z,20.00
2023-04-30T15:17:50.050Z,22.75
2023-04-30T15:20:18.781Z,16.40
2023-04-30T15:22:47.864Z,11.80
2023-04-30T15:25:16.579Z,10.80
2023-04-30T15:27:45.625Z,11.20
2023-04-30T15:30:14.462Z,9.00
2023-04-30T15:32:43.525Z,8.60
2023-04-30T15:35:13.595Z,9.60
2023-04-30T15:37:42.779Z,8.00
2023-04-30T15:40:15.338Z,10.00
2023-04-30T15:42:44.857Z,7.20
2023-04-30T15:45:13.520Z,9.80
2023-04-30T15:47:42.537Z,8.40
2023-04-30T15:50:11.710Z,6.20
2023-04-30T15:52:42.013Z,5.00
2023-04-30T15:55:10.973Z,5.00
2023-04-30T15:57:40.072Z,5.40
2023-04-30T16:00:10.746Z,4.40
2023-04-30T16:02:42.553Z,2.80
2023-04-30T16:05:11.796Z,5.20
2023-04-30T16:07:43.924Z,5.60
2023-04-30T16:10:13.123Z,4.00
2023-04-30T16:12:42.173Z,6.20
2023-04-30T16:15:12.597Z,5.60
2023-04-30T16:17:41.541Z,7.80
2023-04-30T16:20:11.116Z,5.60
2023-04-30T16:22:42.511Z,3.20
2023-04-30T16:25:11.392Z,5.80
2023-04-30T16:27:40.366Z,4.20
2023-04-30T16:30:10.192Z,5.00
2023-04-30T16:32:39.328Z,5.00
2023-04-30T16:35:09.572Z,6.00
2023-04-30T16:37:38.596Z,5.60
2023-04-30T16:40:09.762Z,7.80
2023-04-30T16:42:38.687Z,6.20
2023-04-30T16:45:08.446Z,7.60
2023-04-30T16:47:37.354Z,9.00
2023-04-30T16:50:06.774Z,6.80
2023-04-30T16:52:35.743Z,8.00
2023-04-30T16:55:04.728Z,7.40
2023-04-30T16:57:35.206Z,8.00
2023-04-30T17:00:04.556Z,8.00
2023-04-30T17:02:33.820Z,7.80
2023-04-30T17:05:02.681Z,5.60
2023-04-30T17:07:31.651Z,6.60
2023-04-30T17:10:00.425Z,8.80
2023-04-30T17:12:29.450Z,9.40
2023-04-30T17:14:59.469Z,11.20
2023-04-30T17:17:28.433Z,11.80
2023-04-30T17:19:57.320Z,10.40
2023-04-30T17:22:26.563Z,13.00
2023-04-30T17:24:55.863Z,11.00
2023-04-30T17:27:27.153Z,9.20
2023-04-30T17:29:56.019Z,9.00
2023-04-30T17:32:27.100Z,9.60
2023-04-30T17:34:55.837Z,8.00
2023-04-30T17:37:24.824Z,8.80
2023-04-30T17:39:53.505Z,8.80
2023-04-30T17:42:22.452Z,7.60
2023-04-30T17:44:51.090Z,8.80
2023-04-30T17:47:20.226Z,13.00
2023-04-30T17:49:50.754Z,16.20
2023-04-30T17:52:19.824Z,14.40
2023-04-30T17:54:48.450Z,13.40
2023-04-30T17:57:17.562Z,17.00
2023-04-30T17:59:46.237Z,17.60
2023-04-30T18:02:15.331Z,8.80
2023-04-30T18:04:45.208Z,14.00
2023-04-30T18:07:15.618Z,9.60
2023-04-30T18:09:44.318Z,12.60
2023-04-30T18:12:13.381Z,14.60
2023-04-30T18:14:41.948Z,13.80
2023-04-30T18:17:11.685Z,16.00
2023-04-30T18:19:44.483Z,17.40
2023-04-30T18:22:15.107Z,15.00
2023-04-30T18:24:43.756Z,13.00
2023-04-30T18:27:12.647Z,16.60
2023-04-30T18:29:41.903Z,15.40
2023-04-30T18:32:12.760Z,13.20
2023-04-30T18:34:42.505Z,13.60
2023-04-30T18:37:11.616Z,15.80
2023-04-30T18:39:41.947Z,14.80
2023-04-30T18:42:11.762Z,14.00
2023-04-30T18:44:40.398Z,16.00
2023-04-30T18:47:09.290Z,16.00
2023-04-30T18:49:38.846Z,15.60
2023-04-30T18:52:07.850Z,18.00
2023-04-30T18:54:36.595Z,17.60
2023-04-30T18:57:09.528Z,18.40
2023-04-30T18:59:39.463Z,20.40
2023-04-30T19:02:09.570Z,22.20
2023-04-30T19:04:38.640Z,21.60
2023-04-30T19:07:07.606Z,20.75
2023-04-30T19:09:36.996Z,25.75
2023-04-30T19:12:07.529Z,26.25
2023-04-30T19:14:36.098Z,32.25
2023-04-30T19:17:05.494Z,29.25
2023-04-30T19:19:34.424Z,31.00
2023-04-30T19:22:04.041Z,29.50
2023-04-30T19:24:32.691Z,31.00
2023-04-30T19:27:04.102Z,29.75
2023-04-30T19:29:34.132Z,31.75
2023-04-30T19:32:04.868Z,29.50
2023-04-30T19:34:33.630Z,28.50
2023-04-30T19:37:02.584Z,32.50
2023-04-30T19:39:33.856Z,31.25
2023-04-30T19:42:03.891Z,32.00
2023-04-30T19:44:34.023Z,35.25
2023-04-30T19:47:03.565Z,38.25
2023-04-30T19:49:33.134Z,40.00
2023-04-30T19:52:02.635Z,43.50
2023-04-30T19:54:31.376Z,45.00
2023-04-30T19:57:02.062Z,41.25
2023-04-30T19:59:31.451Z,41.75
2023-04-30T20:02:01.797Z,40.75
2023-04-30T20:04:30.594Z,47.33
2023-04-30T20:07:01.128Z,43.25
2023-04-30T20:09:29.783Z,39.75
2023-04-30T20:11:58.725Z,42.75
2023-04-30T20:14:27.309Z,30.00
2023-04-30T20:16:57.477Z,40.00
2023-04-30T20:19:27.597Z,39.00
2023-04-30T20:21:56.588Z,38.75
2023-04-30T20:24:25.165Z,41.25
2023-04-30T20:26:54.310Z,40.75
2023-04-30T20:29:23.415Z,40.25
2023-04-30T20:31:52.517Z,40.75
2023-04-30T20:34:21.478Z,42.50
2023-04-30T20:36:52.722Z,41.75
2023-04-30T20:39:21.735Z,38.00
2023-04-30T20:41:52.091Z,40.25
2023-04-30T20:44:20.823Z,36.00
2023-04-30T20:46:49.776Z,41.25
2023-04-30T20:49:19.501Z,40.25
2023-04-30T20:51:48.484Z,38.75
2023-04-30T20:54:18.532Z,41.75
2023-04-30T20:56:47.901Z,37.50
2023-04-30T20:59:16.530Z,40.50
2023-04-30T21:01:45.599Z,44.75
2023-04-30T21:04:14.267Z,45.75
2023-04-30T21:06:43.345Z,44.25
2023-04-30T21:09:12.493Z,45.00
2023-04-30T21:11:42.880Z,43.50
2023-04-30T21:14:11.538Z,45.75
2023-04-30T21:16:41.808Z,43.50
2023-04-30T21:19:11.219Z,42.25
2023-04-30T21:21:40.405Z,46.75
2023-04-30T21:24:09.123Z,45.00
2023-04-30T21:26:38.254Z,46.00
2023-04-30T21:29:08.642Z,43.75
2023-04-30T21:31:38.195Z,45.75
2023-04-30T21:34:06.833Z,47.25
2023-04-30T21:36:37.326Z,46.25
2023-04-30T21:39:05.977Z,44.50
2023-04-30T21:41:34.889Z,46.25
2023-04-30T21:44:03.535Z,44.25
2023-04-30T21:46:33.925Z,44.50
2023-04-30T21:49:02.434Z,47.75
2023-04-30T21:51:32.109Z,45.75
2023-04-30T21:54:00.711Z,49.00
2023-04-30T21:56:29.642Z,45.25
2023-04-30T21:58:58.201Z,47.00
2023-04-30T22:01:29.937Z,47.00
2023-04-30T22:04:00.003Z,46.25
2023-04-30T22:06:29.007Z,46.75
2023-04-30T22:08:57.637Z,46.25
2023-04-30T22:11:27.233Z,45.00
2023-04-30T22:13:55.819Z,45.50
2023-04-30T22:16:25.110Z,45.00
2023-04-30T22:18:53.834Z,44.00
2023-04-30T22:21:24.436Z,47.00
2023-04-30T22:23:53.081Z,15.75
2023-04-30T22:26:23.657Z,45.75
2023-04-30T22:28:53.355Z,46.50
2023-04-30T22:31:22.399Z,44.75
2023-04-30T22:33:50.947Z,43.75
2023-04-30T22:36:19.997Z,42.00
2023-04-30T22:38:49.845Z,42.75
2023-04-30T22:41:18.715Z,42.50
2023-04-30T22:43:47.799Z,39.50
2023-04-30T22:46:16.862Z,45.25
2023-04-30T22:48:45.677Z,44.50
2023-04-30T22:51:14.670Z,42.00
2023-04-30T22:53:43.393Z,41.25
2023-04-30T22:56:13.706Z,40.75
2023-04-30T22:58:42.293Z,43.50
2023-04-30T23:01:11.637Z,46.25
2023-04-30T23:03:40.798Z,46.25
2023-04-30T23:06:11.174Z,45.00
2023-04-30T23:08:39.920Z,46.25
2023-04-30T23:11:08.839Z,49.75
2023-04-30T23:13:39.146Z,48.00
2023-04-30T23:16:10.457Z,47.50
2023-04-30T23:18:39.244Z,50.25
2023-04-30T23:21:08.487Z,47.25
2023-04-30T23:23:37.031Z,47.00
2023-04-30T23:26:05.956Z,48.00
2023-04-30T23:28:34.472Z,45.50
2023-04-30T23:31:04.819Z,48.00
2023-04-30T23:33:34.155Z,42.25
2023-04-30T23:36:03.125Z,47.00
2023-04-30T23:38:31.676Z,47.00
2023-04-30T23:41:00.714Z,48.25
2023-04-30T23:43:30.025Z,46.00
2023-04-30T23:45:59.324Z,45.00
2023-04-30T23:48:30.544Z,42.00
2023-04-30T23:51:00.381Z,45.00
2023-04-30T23:53:29.573Z,45.50
2023-04-30T23:55:59.276Z,46.25
2023-04-30T23:58:30.020Z,44.50
